NGTA/TRW METAR and TAF weather

Enter ICAO airport designator
Station Type Date Time Source
NGTA METAR 2022/08/16 18:00 UTC NOAA

NGTA 161800Z 10010KT 9999 SCT019 27/23 Q1009


Station Type Date Time Source
NGTA Decoded METAR 2022/08/16 18:00 UTC NOAA

Tarawa, Kiribati (NGTA) 01-21N 172-55E 4M
Aug 16, 2022 - 02:00 PM EDT / 2022.08.16 1800 UTC
Wind: from the E (100 degrees) at 12 MPH (10 KT):0
Visibility: greater than 7 mile(s):0
Sky conditions: partly cloudy
Temperature: 80 F (27 C)
Dew Point: 73 F (23 C)
Relative Humidity: 78%
Pressure (altimeter): 29.80 in. Hg (1009 hPa)
ob: NGTA 161800Z 10010KT 9999 SCT019 27/23 Q1009
cycle: 18

Station Type Date Time Source
NGTA TAF 2022/08/16 18:15 UTC NOAA

TAF NGTA 161712Z 1618/1718 09010KT 9999 FEW020

Example: see airport list